Llucmajor, Spain
Current Conditions -  °F | °C
As of 2:30 PM on Friday 28 Nov 2014 (Local Time) from LEPA Reporting Station
Few Clouds Few Clouds  
Wind Chill: 70°   Ceiling: Unl
Heat Index: 70°   Visibility: 6mi
Dew Point: 54°   Wind: 16mph
Humidity: 56%   Direction: 170°S
Pressure: 29.35"   Gusts: NA
Location:  39.49°N, 2.89°E
Report Text: LEPA 281330Z 17014KT 120V220 9999 FEW026 21/12 Q0994 NOSIG
Loading
Personal Weather Stations






























Interactive Weather Map New forecast layout! Learn more

10-Day Weather Forecast

Advertisements
Track Severe Weather on mobile